Time;durP1;ratioP1;P1;durP2;ratioP2;P2;SDS_P1;SDS_P2;PMS_P1;PMS_P2;Temp;Humidity;BMP_temperature;BMP_pressure;BME280_temperature;BME280_humidity;BME280_pressure;Samples;Min_cycle;Max_cycle;Signal;HPM_P1;HPM_P2
2022/03/30 00:00:11;;;;;;;7.65;1.98;;;;;;;-2.47;71.59;99918.16;5043452;28;20017;-71
2022/03/30 00:02:37;;;;;;;4.88;1.35;;;;;;;-2.52;71.73;99922.19;5042891;28;20025;-71
2022/03/30 00:05:03;;;;;;;5.38;1.63;;;;;;;-2.53;71.60;99928.97;5043238;28;20021;-73
2022/03/30 00:07:31;;;;;;;4.30;1.85;;;;;;;-2.57;71.38;99924.56;5042728;28;20017;-73
2022/03/30 00:10:01;;;;;;;4.25;1.88;;;;;;;-2.60;71.37;99915.97;5025228;28;20361;-73
2022/03/30 00:12:27;;;;;;;3.03;1.40;;;;;;;-2.58;71.17;99933.00;5042442;28;20033;-72
2022/03/30 00:14:55;;;;;;;4.15;1.73;;;;;;;-2.59;71.41;99936.38;5043093;28;20067;-73
2022/03/30 00:17:21;;;;;;;3.80;1.58;;;;;;;-2.66;71.24;99921.69;5042755;28;20025;-74
2022/03/30 00:19:46;;;;;;;4.05;1.73;;;;;;;-2.65;71.13;99936.16;5042658;28;20138;-72
2022/03/30 00:22:11;;;;;;;4.15;2.05;;;;;;;-2.68;71.04;99939.41;5042812;28;20036;-71
2022/03/30 00:24:43;;;;;;;4.45;1.75;;;;;;;-2.72;71.06;99927.41;5042678;28;20053;-72
2022/03/30 00:27:09;;;;;;;4.70;1.98;;;;;;;-2.75;70.89;99928.16;5023966;28;20029;-71
2022/03/30 00:29:35;;;;;;;2.53;1.60;;;;;;;-2.78;71.03;99927.19;5024637;28;20101;-72
2022/03/30 00:32:00;;;;;;;3.10;1.55;;;;;;;-2.78;71.00;99932.28;5042723;28;20071;-73
2022/03/30 00:34:26;;;;;;;3.08;1.52;;;;;;;-2.81;70.95;99934.69;5042758;28;20106;-73
2022/03/30 00:36:51;;;;;;;3.28;1.83;;;;;;;-2.85;71.07;99933.69;5042806;28;20044;-73
2022/03/30 00:39:17;;;;;;;2.70;1.40;;;;;;;-2.84;71.18;99937.97;5042448;28;20025;-72
2022/03/30 00:41:43;;;;;;;4.53;1.65;;;;;;;-2.81;70.90;99937.22;5042596;28;20049;-72
2022/03/30 00:44:10;;;;;;;3.22;1.80;;;;;;;-2.87;70.85;99927.69;5042483;28;20021;-73
2022/03/30 00:46:35;;;;;;;2.40;1.35;;;;;;;-2.91;70.75;99928.38;5043280;28;20347;-72
2022/03/30 00:49:04;;;;;;;4.45;1.98;;;;;;;-2.86;70.80;99942.16;5042580;28;20032;-72
2022/03/30 00:51:30;;;;;;;2.80;1.50;;;;;;;-2.86;70.65;99937.91;5042471;28;20075;-73
2022/03/30 00:53:55;;;;;;;3.70;1.65;;;;;;;-2.86;70.48;99944.69;5042614;28;20071;-72
2022/03/30 00:56:21;;;;;;;2.95;2.00;;;;;;;-2.85;70.57;99936.25;5042630;28;20021;-72
2022/03/30 00:58:46;;;;;;;6.30;2.05;;;;;;;-2.85;70.49;99941.31;5024237;28;20108;-71
2022/03/30 01:01:12;;;;;;;5.45;1.58;;;;;;;-2.89;70.35;99942.88;5049167;28;20036;-71
2022/03/30 01:03:37;;;;;;;2.38;1.27;;;;;;;-2.89;70.07;99949.66;5042442;28;20412;-70
2022/03/30 01:06:02;;;;;;;9.48;1.88;;;;;;;-2.95;70.29;99942.63;5042376;28;20112;-71
2022/03/30 01:08:28;;;;;;;6.07;1.52;;;;;;;-2.94;70.18;99943.50;5042305;28;20029;-70
2022/03/30 01:10:53;;;;;;;3.13;1.70;;;;;;;-3.00;70.09;99949.19;5042517;28;20406;-71
2022/03/30 01:13:19;;;;;;;2.63;1.30;;;;;;;-3.01;70.13;99950.00;5042111;28;20029;-72
2022/03/30 01:15:48;;;;;;;5.22;2.03;;;;;;;-3.04;70.12;99945.69;5042241;28;20021;-71
2022/03/30 01:18:14;;;;;;;3.22;1.40;;;;;;;-3.05;70.15;99946.47;5042193;28;20335;-71
2022/03/30 01:20:40;;;;;;;3.13;1.65;;;;;;;-3.06;69.95;99952.38;5042190;28;20032;-70
2022/03/30 01:23:05;;;;;;;2.35;1.33;;;;;;;-3.08;69.78;99948.91;5042217;28;20032;-72
2022/03/30 01:25:31;;;;;;;5.10;2.15;;;;;;;-3.11;69.72;99943.69;5041954;28;20025;-72
2022/03/30 01:27:57;;;;;;;2.15;1.20;;;;;;;-3.14;69.63;99941.91;5042131;28;20028;-71
2022/03/30 01:33:07;;;;;;;2.88;1.60;;;;;;;-3.21;69.78;99941.63;5042215;28;20572;-72
2022/03/30 01:35:34;;;;;;;4.68;1.50;;;;;;;-3.28;69.80;99933.75;5041955;28;20018;-71
2022/03/30 01:37:59;;;;;;;3.00;1.60;;;;;;;-3.22;69.66;99944.94;5041952;28;20544;-71
2022/03/30 01:40:25;;;;;;;5.18;1.52;;;;;;;-3.23;69.60;99949.16;5045179;28;20033;-72
2022/03/30 01:42:50;;;;;;;4.82;4.38;;;;;;;-3.31;69.64;99927.69;5045008;28;20103;-70
2022/03/30 01:45:16;;;;;;;2.00;1.20;;;;;;;-3.28;69.64;99937.94;5027777;28;20029;-72
2022/03/30 01:47:54;;;;;;;10.45;2.67;;;;;;;-3.26;69.59;99944.81;5045437;28;20366;-71
2022/03/30 01:50:22;;;;;;;1.50;1.27;;;;;;;-3.27;69.51;99940.56;5045354;28;20398;-71
2022/03/30 01:52:48;;;;;;;3.85;1.35;;;;;;;-3.26;69.39;99943.97;5045303;28;20028;-71
2022/03/30 01:55:14;;;;;;;3.42;1.40;;;;;;;-3.37;69.34;99933.38;5045977;28;20017;-71
2022/03/30 01:57:40;;;;;;;3.92;1.40;;;;;;;-3.39;69.52;99927.38;5044830;28;20032;-69
2022/03/30 02:00:06;;;;;;;5.10;2.35;;;;;;;-3.39;69.22;99927.38;5045552;28;20029;-72
2022/03/30 02:02:32;;;;;;;4.07;1.55;;;;;;;-3.35;69.20;99939.38;5045309;28;20021;-72
2022/03/30 02:05:06;;;;;;;2.17;1.25;;;;;;;-3.36;69.25;99942.72;5045260;28;20403;-73
2022/03/30 02:07:31;;;;;;;4.15;1.77;;;;;;;-3.35;69.43;99944.44;5045187;28;20053;-73
2022/03/30 02:09:56;;;;;;;2.60;1.50;;;;;;;-3.36;69.29;99937.66;5044899;28;20041;-73
2022/03/30 02:12:22;;;;;;;2.40;1.60;;;;;;;-3.37;69.15;99934.22;5044418;28;20025;-72
2022/03/30 02:14:51;;;;;;;4.50;1.60;;;;;;;-3.45;69.12;99917.81;5044829;28;20021;-73
2022/03/30 02:17:18;;;;;;;2.13;1.30;;;;;;;-3.37;68.90;99933.38;5044775;28;20094;-74
2022/03/30 02:19:44;;;;;;;3.00;1.73;;;;;;;-3.41;69.00;99934.03;5044803;28;20025;-73
2022/03/30 02:22:09;;;;;;;3.08;1.75;;;;;;;-3.38;69.02;99934.16;5044700;28;20049;-73
2022/03/30 02:24:35;;;;;;;2.75;1.20;;;;;;;-3.38;68.74;99934.16;5044526;28;20040;-73
2022/03/30 02:27:01;;;;;;;4.22;1.60;;;;;;;-3.45;68.73;99930.50;5044653;28;20026;-74
2022/03/30 02:29:26;;;;;;;3.38;1.52;;;;;;;-3.41;68.83;99941.66;5044519;28;20032;-72
2022/03/30 02:31:51;;;;;;;3.58;1.67;;;;;;;-3.44;68.77;99944.06;5044591;28;20084;-73
2022/03/30 02:34:17;;;;;;;5.40;1.70;;;;;;;-3.45;68.78;99940.66;5044727;28;20025;-73
2022/03/30 02:36:43;;;;;;;4.40;2.10;;;;;;;-3.56;68.64;99929.22;5044435;28;20021;-74
2022/03/30 02:39:09;;;;;;;3.90;1.40;;;;;;;-3.55;68.58;99941.97;5044464;28;20476;-74
2022/03/30 02:41:34;;;;;;;3.75;1.48;;;;;;;-3.56;68.61;99955.44;5043976;28;20049;-73
2022/03/30 02:44:00;;;;;;;3.30;1.75;;;;;;;-3.58;68.62;99946.94;5043987;28;20036;-74
2022/03/30 02:46:25;;;;;;;3.90;1.75;;;;;;;-3.63;68.73;99948.41;5044003;28;20095;-74
2022/03/30 02:48:51;;;;;;;2.40;1.60;;;;;;;-3.63;68.83;99940.78;5043805;28;20045;-73
2022/03/30 02:51:16;;;;;;;6.55;1.20;;;;;;;-3.69;68.84;99935.47;5043276;28;20045;-73
2022/03/30 02:53:42;;;;;;;4.55;1.45;;;;;;;-3.72;68.99;99936.19;5044244;28;20032;-75
2022/03/30 02:56:07;;;;;;;3.40;1.58;;;;;;;-3.70;69.15;99938.78;5043839;28;20033;-74
2022/03/30 02:58:32;;;;;;;2.25;1.25;;;;;;;-3.68;69.02;99950.75;5043779;28;20029;-74
2022/03/30 03:00:58;;;;;;;2.30;1.45;;;;;;;-3.68;68.85;99955.81;5044053;28;20028;-74
2022/03/30 03:03:24;;;;;;;6.75;1.88;;;;;;;-3.72;69.01;99953.09;5043742;28;20025;-74
2022/03/30 03:05:50;;;;;;;2.50;1.42;;;;;;;-3.73;69.29;99954.75;5043880;28;20079;-74
2022/03/30 03:08:15;;;;;;;4.93;1.63;;;;;;;-3.74;68.99;99953.03;5043679;28;20517;-74
2022/03/30 03:10:44;;;;;;;5.57;2.03;;;;;;;-3.76;69.00;99959.69;5025786;28;20057;-74
2022/03/30 03:13:11;;;;;;;7.03;1.50;;;;;;;-3.83;69.03;99948.41;5043422;28;20072;-74
2022/03/30 03:15:37;;;;;;;4.50;1.33;;;;;;;-3.86;69.02;99955.88;5025971;28;20025;-74
2022/03/30 03:18:04;;;;;;;3.78;1.70;;;;;;;-3.82;69.02;99956.91;5043356;28;20496;-75
2022/03/30 03:20:31;;;;;;;3.83;1.48;;;;;;;-3.83;68.94;99952.63;5043818;28;20025;-74
2022/03/30 03:22:57;;;;;;;3.10;1.73;;;;;;;-3.87;69.03;99949.09;5043597;28;20025;-74
2022/03/30 03:25:23;;;;;;;6.15;1.77;;;;;;;-3.88;68.88;99957.47;5043494;28;20025;-74
2022/03/30 03:27:49;;;;;;;3.45;1.63;;;;;;;-3.84;69.04;99958.50;5043124;28;20114;-75
2022/03/30 03:30:14;;;;;;;2.85;1.63;;;;;;;-3.82;68.86;99962.84;5043703;28;20041;-76
2022/03/30 03:32:41;;;;;;;5.32;1.60;;;;;;;-3.82;68.81;99959.44;5043342;28;20021;-75
2022/03/30 03:35:10;;;;;;;3.22;1.60;;;;;;;-3.81;68.81;99968.78;5043317;28;20025;-75
2022/03/30 03:37:37;;;;;;;4.13;2.10;;;;;;;-3.80;68.78;99966.28;5043375;28;20079;-75
2022/03/30 03:40:03;;;;;;;1.60;1.23;;;;;;;-3.80;68.79;99968.84;5043193;28;20034;-75
2022/03/30 03:42:28;;;;;;;2.65;1.45;;;;;;;-3.85;68.90;99960.19;5042829;28;20041;-74
2022/03/30 03:44:54;;;;;;;5.80;1.90;;;;;;;-3.80;69.06;99971.38;5043121;28;20109;-75
2022/03/30 03:47:19;;;;;;;1.98;1.63;;;;;;;-3.81;69.01;99972.19;5025283;28;20446;-75
2022/03/30 03:49:45;;;;;;;3.58;1.40;;;;;;;-3.82;68.87;99984.81;5042984;28;20026;-75
2022/03/30 03:52:10;;;;;;;2.35;1.30;;;;;;;-3.83;68.80;99980.53;5025326;28;20022;-74
2022/03/30 03:54:36;;;;;;;4.13;1.75;;;;;;;-3.86;68.96;99976.19;5042943;28;20033;-75
2022/03/30 03:57:01;;;;;;;2.55;1.58;;;;;;;-3.88;68.75;99978.66;5042956;28;20021;-74
2022/03/30 03:59:26;;;;;;;4.28;1.55;;;;;;;-3.88;68.86;99978.66;5042877;28;20035;-75
2022/03/30 04:01:52;;;;;;;4.75;1.50;;;;;;;-3.89;68.76;99982.00;5024863;28;20028;-75
2022/03/30 04:04:18;;;;;;;3.83;1.50;;;;;;;-3.90;68.81;99979.41;5042864;28;20040;-69
2022/03/30 04:06:43;;;;;;;6.75;1.90;;;;;;;-3.90;68.84;99984.47;5042970;28;20026;-70
2022/03/30 04:09:08;;;;;;;2.72;1.63;;;;;;;-3.92;68.71;99986.94;5042847;28;20045;-71
2022/03/30 04:11:34;;;;;;;1.60;1.25;;;;;;;-3.91;68.83;99982.72;5042935;28;20025;-72
2022/03/30 04:13:59;;;;;;;2.28;1.40;;;;;;;-3.88;69.32;99987.91;5024833;28;20025;-72
2022/03/30 04:16:25;;;;;;;2.30;1.42;;;;;;;-3.88;69.29;99988.81;5042514;28;20017;-72
2022/03/30 04:18:50;;;;;;;2.85;1.63;;;;;;;-3.88;69.52;99987.91;5042911;28;20030;-72
2022/03/30 04:21:16;;;;;;;5.32;1.80;;;;;;;-3.87;69.79;99990.56;5042717;28;20029;-73
2022/03/30 04:23:41;;;;;;;3.95;1.80;;;;;;;-3.85;69.41;99990.63;5042746;28;20212;-72
2022/03/30 04:26:09;;;;;;;3.60;1.55;;;;;;;-3.83;69.56;99989.00;5043017;28;20026;-67
2022/03/30 04:28:40;;;;;;;3.80;1.92;;;;;;;-3.88;69.69;99982.84;5042452;28;20032;-72
2022/03/30 04:31:08;;;;;;;2.90;1.75;;;;;;;-3.81;69.59;99997.56;5042585;28;20026;-76
2022/03/30 04:33:34;;;;;;;4.78;2.45;;;;;;;-3.82;69.60;99993.28;5042576;28;20041;-77
2022/03/30 04:36:00;;;;;;;4.70;1.88;;;;;;;-3.86;69.66;99991.41;5042637;28;20097;-76
2022/03/30 04:38:25;;;;;;;2.60;1.35;;;;;;;-3.84;69.64;100005.03;5042384;28;20028;-76
2022/03/30 04:40:50;;;;;;;7.03;2.05;;;;;;;-3.84;69.58;99997.41;5042483;28;20087;-76
2022/03/30 04:43:16;;;;;;;3.25;1.70;;;;;;;-3.83;69.58;100003.38;5042250;28;20065;-76
2022/03/30 04:45:41;;;;;;;4.05;1.75;;;;;;;-3.89;69.53;100001.41;5024793;28;20017;-77
2022/03/30 04:48:07;;;;;;;9.70;1.80;;;;;;;-3.86;69.48;100009.16;5042635;28;20041;-76
2022/03/30 04:50:32;;;;;;;3.88;2.10;;;;;;;-3.86;69.51;100009.16;5042846;28;20049;-76
2022/03/30 04:52:57;;;;;;;6.13;1.88;;;;;;;-3.87;69.45;100009.97;5042883;28;20517;-77
2022/03/30 04:55:23;;;;;;;4.10;1.80;;;;;;;-3.98;69.57;99981.59;5024933;28;20033;-75
2022/03/30 04:57:48;;;;;;;4.20;1.75;;;;;;;-3.68;69.88;100001.50;5042266;28;20506;-74
2022/03/30 05:00:14;;;;;;;5.13;2.10;;;;;;;-3.37;70.32;100002.78;5042170;28;20037;-77
2022/03/30 05:02:40;;;;;;;3.40;1.65;;;;;;;-3.03;70.74;100002.41;5042325;28;20032;-76
2022/03/30 05:05:08;;;;;;;2.55;1.60;;;;;;;-2.64;71.32;100006.50;5042569;28;20029;-77
2022/03/30 05:07:33;;;;;;;2.55;1.45;;;;;;;-2.35;71.05;100001.66;5042313;28;20133;-76
2022/03/30 05:09:59;;;;;;;5.85;1.75;;;;;;;-1.92;71.23;100015.09;5024395;28;20022;-76
2022/03/30 05:12:25;;;;;;;7.20;1.80;;;;;;;-1.51;71.73;100001.22;5042317;28;20055;-75
2022/03/30 05:14:51;;;;;;;2.03;1.42;;;;;;;-1.10;71.47;100007.66;5044487;28;20136;-77
2022/03/30 05:17:16;;;;;;;2.28;1.30;;;;;;;-0.90;71.45;99998.09;5028292;28;20030;-77
2022/03/30 05:19:44;;;;;;;4.72;1.95;;;;;;;-0.52;71.62;100010.31;5028238;28;20033;-77
2022/03/30 05:22:10;;;;;;;5.43;2.05;;;;;;;-0.18;72.12;100013.00;5028258;28;20028;-77
2022/03/30 05:24:35;;;;;;;2.70;1.45;;;;;;;0.28;72.71;100007.44;5046066;28;20087;-76
2022/03/30 05:27:01;;;;;;;3.55;1.50;;;;;;;0.81;72.82;99999.47;5046164;28;20025;-76
2022/03/30 05:29:26;;;;;;;6.38;2.50;;;;;;;1.24;71.93;99993.66;5045473;28;20033;-76
2022/03/30 05:31:51;;;;;;;3.50;1.92;;;;;;;1.83;72.24;100010.28;5027886;28;20029;-75
2022/03/30 05:34:17;;;;;;;6.07;1.83;;;;;;;2.39;71.74;100017.34;5046027;28;20029;-75
2022/03/30 05:36:42;;;;;;;2.80;1.50;;;;;;;2.77;71.17;100012.03;5028000;28;20021;-76
2022/03/30 05:39:08;;;;;;;4.78;1.73;;;;;;;3.43;71.03;100006.25;5028183;28;20231;-75
2022/03/30 05:41:34;;;;;;;7.43;1.58;;;;;;;3.81;70.24;100005.03;5024531;28;20046;-77
2022/03/30 05:44:00;;;;;;;6.65;1.60;;;;;;;4.33;69.60;100006.47;5025596;28;20036;-76
2022/03/30 05:46:26;;;;;;;6.95;1.80;;;;;;;4.74;68.66;100013.72;5024348;28;20030;-77
2022/03/30 05:48:51;;;;;;;3.83;1.30;;;;;;;4.95;68.07;100010.50;5025424;28;20072;-77
2022/03/30 05:51:17;;;;;;;6.32;1.63;;;;;;;5.56;67.58;100016.91;5025656;28;20025;-78
2022/03/30 05:53:43;;;;;;;8.75;1.65;;;;;;;5.78;65.28;100017.03;5025655;28;20323;-78
2022/03/30 05:56:08;;;;;;;2.90;1.45;;;;;;;5.92;64.00;100018.81;5025652;28;20136;-76
2022/03/30 05:58:33;;;;;;;2.15;1.20;;;;;;;5.88;62.47;100017.94;5024991;28;20025;-76
2022/03/30 06:00:59;;;;;;;4.35;1.58;;;;;;;5.84;62.28;100026.53;5025302;28;20041;-75
2022/03/30 06:03:24;;;;;;;4.60;1.73;;;;;;;6.02;61.84;100036.03;5025230;28;20053;-75
2022/03/30 06:05:51;;;;;;;3.30;1.83;;;;;;;6.05;59.14;100024.94;5023665;28;20025;-74
2022/03/30 06:08:16;;;;;;;1.80;1.23;;;;;;;5.77;57.36;100040.19;5025131;28;20057;-74
2022/03/30 06:10:42;;;;;;;5.70;1.60;;;;;;;5.46;57.08;100034.03;5024859;28;20033;-74
2022/03/30 06:13:08;;;;;;;3.85;1.35;;;;;;;5.41;57.44;100034.84;5024658;28;20036;-74
2022/03/30 06:15:34;;;;;;;4.25;1.58;;;;;;;5.37;55.70;100031.38;5024847;28;20463;-74
2022/03/30 06:17:59;;;;;;;3.80;1.30;;;;;;;5.23;55.58;100036.44;5025088;28;20192;-75
2022/03/30 06:20:25;;;;;;;4.78;1.50;;;;;;;5.35;56.43;100038.25;5024715;28;20026;-75
2022/03/30 06:22:52;;;;;;;6.68;1.50;;;;;;;5.67;56.71;100037.56;5025052;28;20026;-75
2022/03/30 06:25:24;;;;;;;4.07;1.58;;;;;;;6.08;55.84;100040.41;5023651;28;20030;-74
2022/03/30 06:27:49;;;;;;;3.78;1.40;;;;;;;6.14;54.27;100043.00;5023044;28;20461;-74
2022/03/30 06:30:15;;;;;;;3.03;1.42;;;;;;;6.20;54.16;100044.72;5024731;28;20030;-75
2022/03/30 06:32:40;;;;;;;4.50;1.55;;;;;;;5.95;52.71;100045.47;5023286;28;20025;-73
2022/03/30 06:35:06;;;;;;;6.28;1.80;;;;;;;5.72;52.88;100044.50;5023063;28;20049;-74
2022/03/30 06:37:32;;;;;;;4.78;1.80;;;;;;;5.64;52.79;100045.28;5024563;28;20022;-75
2022/03/30 06:39:58;;;;;;;5.25;1.80;;;;;;;5.62;52.46;100049.59;5024458;28;20030;-74
2022/03/30 06:42:23;;;;;;;4.15;1.48;;;;;;;5.59;51.81;100036.69;5036044;28;20136;-74
2022/03/30 06:44:48;;;;;;;3.50;1.75;;;;;;;5.54;51.04;100048.66;5043753;28;20033;-74
2022/03/30 06:47:14;;;;;;;6.55;1.67;;;;;;;5.52;50.58;100050.38;5043900;28;20025;-74
2022/03/30 06:49:39;;;;;;;4.70;1.73;;;;;;;5.64;51.49;100057.31;5044018;28;20039;-74
2022/03/30 06:52:06;;;;;;;4.13;1.40;;;;;;;5.85;51.02;100055.72;5044194;28;20100;-74
2022/03/30 06:54:31;;;;;;;2.13;1.60;;;;;;;5.95;49.40;100058.34;5044164;28;20022;-74
2022/03/30 06:56:59;;;;;;;7.72;1.98;;;;;;;6.20;50.52;100060.19;5025801;28;20023;-74
2022/03/30 06:59:25;;;;;;;2.92;1.50;;;;;;;6.42;49.84;100052.56;5043383;28;20048;-74
2022/03/30 07:01:51;;;;;;;5.68;1.60;;;;;;;6.72;48.15;100047.44;5025739;28;20021;-74
2022/03/30 07:04:17;;;;;;;4.15;2.00;;;;;;;6.96;48.54;100051.78;5043719;28;20465;-75
2022/03/30 07:10:15;;;;;;;3.30;1.85;;;;;;;7.21;47.96;100045.75;5043539;28;20025;-74
2022/03/30 07:12:12;;;;;;;5.53;1.85;;;;;;;8.05;48.54;100053.38;5043686;28;20056;-76
2022/03/30 07:14:37;;;;;;;5.38;1.73;;;;;;;8.63;47.03;100038.44;5025177;28;20021;-74
2022/03/30 07:17:03;;;;;;;2.42;1.60;;;;;;;8.89;46.22;100049.47;5043418;28;20026;-75
2022/03/30 07:19:29;;;;;;;3.95;1.60;;;;;;;9.27;44.23;100056.09;5043322;28;20025;-76
2022/03/30 07:21:54;;;;;;;5.55;1.60;;;;;;;9.32;44.05;100045.69;5043432;28;20028;-76
2022/03/30 07:24:19;;;;;;;3.05;1.33;;;;;;;9.78;43.17;100052.16;5043530;28;20029;-76
2022/03/30 07:26:45;;;;;;;3.50;1.65;;;;;;;9.80;42.66;100044.34;5043354;28;20072;-76
2022/03/30 07:29:10;;;;;;;4.60;1.50;;;;;;;9.83;41.85;100054.69;5043233;28;20029;-77
2022/03/30 07:31:36;;;;;;;7.38;1.80;;;;;;;9.95;41.79;100063.22;5043161;28;20236;-77
2022/03/30 07:34:01;;;;;;;4.65;1.60;;;;;;;10.32;41.83;100060.16;5043342;28;20017;-76
2022/03/30 07:36:26;;;;;;;10.48;1.70;;;;;;;10.24;40.66;100062.84;5042843;28;20024;-77
2022/03/30 07:38:52;;;;;;;5.95;1.70;;;;;;;10.21;40.99;100064.63;5043005;28;20037;-77
2022/03/30 07:41:17;;;;;;;3.22;1.27;;;;;;;10.23;39.57;100068.06;5042904;28;20045;-75
2022/03/30 07:43:43;;;;;;;6.38;1.70;;;;;;;10.07;40.28;100078.63;5042750;28;20049;-76
2022/03/30 07:46:11;;;;;;;5.50;1.60;;;;;;;10.28;40.26;100074.91;5042935;28;20481;-75
2022/03/30 07:48:37;;;;;;;3.35;1.58;;;;;;;10.33;39.69;100055.81;5025000;28;20017;-76
2022/03/30 07:51:03;;;;;;;3.65;1.20;;;;;;;10.68;39.17;100079.63;5042854;28;20032;-77
2022/03/30 07:53:29;;;;;;;6.45;1.40;;;;;;;10.77;37.72;100071.69;5042889;28;20025;-77
2022/03/30 07:55:55;;;;;;;3.95;1.52;;;;;;;10.93;37.29;100072.31;5025207;28;20025;-77
2022/03/30 07:58:21;;;;;;;3.42;1.40;;;;;;;10.46;36.26;100067.81;5042704;28;20022;-77
2022/03/30 08:00:47;;;;;;;3.88;1.30;;;;;;;9.98;34.67;100073.53;5042830;28;20466;-76
2022/03/30 08:03:12;;;;;;;2.30;1.02;;;;;;;9.44;35.98;100073.19;5042843;28;20049;-77
2022/03/30 08:05:38;;;;;;;3.60;1.00;;;;;;;8.95;33.72;100075.31;5042689;28;20021;-79
2022/03/30 08:08:06;;;;;;;2.42;1.42;;;;;;;8.33;34.70;100076.50;5042658;28;20037;-77
2022/03/30 08:10:33;;;;;;;6.20;1.20;;;;;;;8.03;34.97;100078.34;5042461;28;20400;-77
2022/03/30 08:12:59;;;;;;;3.85;0.95;;;;;;;7.98;35.94;100086.13;5042647;28;20026;-76
2022/03/30 08:15:25;;;;;;;2.15;0.93;;;;;;;7.84;33.67;100099.09;5024646;28;20033;-76
2022/03/30 08:17:51;;;;;;;3.92;1.23;;;;;;;7.42;33.24;100084.50;5042909;28;20072;-76
2022/03/30 08:23:03;;;;;;;2.40;0.93;;;;;;;6.78;33.74;100096.47;5042671;28;20393;-76
2022/03/30 08:25:29;;;;;;;3.42;1.02;;;;;;;6.81;29.98;100088.75;5042279;28;20029;-77
2022/03/30 08:27:54;;;;;;;3.13;1.00;;;;;;;6.34;31.01;100083.47;5042234;28;20028;-77
2022/03/30 08:30:20;;;;;;;2.15;1.02;;;;;;;6.21;31.35;100092.88;5042335;28;20029;-76
2022/03/30 08:32:45;;;;;;;2.78;1.13;;;;;;;6.15;31.65;100085.94;5042440;28;20060;-75
2022/03/30 08:35:12;;;;;;;3.45;1.00;;;;;;;6.18;30.16;100090.28;5042186;28;20022;-74
2022/03/30 08:37:38;;;;;;;3.72;1.02;;;;;;;6.05;29.50;100091.94;5024318;28;20028;-76
2022/03/30 08:40:04;;;;;;;3.13;1.10;;;;;;;6.05;30.20;100091.94;5042166;28;20365;-75
2022/03/30 08:42:30;;;;;;;3.00;0.80;;;;;;;6.09;28.79;100088.50;5042168;28;20109;-75
2022/03/30 08:44:55;;;;;;;1.58;0.63;;;;;;;6.15;28.68;100088.53;5042212;28;20022;-75
2022/03/30 08:47:21;;;;;;;3.33;0.80;;;;;;;6.20;28.93;100092.00;5042547;28;20028;-75
2022/03/30 08:49:50;;;;;;;1.42;0.95;;;;;;;6.26;28.00;100090.31;5044957;28;20476;-75
2022/03/30 08:52:16;;;;;;;1.25;0.80;;;;;;;6.35;27.98;100086.91;5047163;28;20108;-75
2022/03/30 08:54:49;;;;;;;2.85;0.82;;;;;;;6.57;28.77;100098.16;5028465;28;20117;-74
2022/03/30 08:57:15;;;;;;;2.72;0.90;;;;;;;6.80;27.44;100087.91;5046607;28;20081;-75
2022/03/30 08:59:57;;;;;;;1.30;0.80;;;;;;;6.64;26.51;100093.88;5046229;28;20022;-74
2022/03/30 09:02:22;;;;;;;1.58;1.00;;;;;;;6.65;25.35;100095.59;5046406;28;20025;-74
2022/03/30 09:05:15;;;;;;;1.23;0.63;;;;;;;6.62;26.44;100082.69;5046440;28;20081;-76
2022/03/30 09:07:43;;;;;;;0.82;0.70;;;;;;;7.09;26.06;100080.19;5028361;28;20096;-75
2022/03/30 09:10:14;;;;;;;1.52;0.90;;;;;;;7.53;24.81;100073.28;5046262;28;20393;-75
2022/03/30 09:12:40;;;;;;;0.90;0.70;;;;;;;7.74;23.42;100081.88;5046035;28;20040;-75
2022/03/30 09:15:06;;;;;;;3.65;0.77;;;;;;;8.13;23.70;100087.78;5028024;28;20227;-75
2022/03/30 09:17:43;;;;;;;1.02;0.50;;;;;;;8.49;21.94;100082.47;5046067;28;20099;-75
2022/03/30 09:20:19;;;;;;;1.45;0.77;;;;;;;8.43;21.37;100072.16;5045759;28;20021;-74
2022/03/30 09:22:49;;;;;;;2.97;1.23;;;;;;;8.72;21.56;100065.13;5046106;28;20082;-74
2022/03/30 09:25:16;;;;;;;0.57;0.50;;;;;;;8.63;20.13;100084.16;5045948;28;20014;-75
2022/03/30 09:27:42;;;;;;;0.95;0.77;;;;;;;8.31;19.71;100079.09;5045986;28;20057;-73
2022/03/30 09:30:11;;;;;;;1.70;0.70;;;;;;;8.11;20.17;100084.38;5027847;28;20044;-75
2022/03/30 09:32:38;;;;;;;1.40;0.60;;;;;;;8.24;19.04;100076.56;5045498;28;20033;-77
2022/03/30 09:35:04;;;;;;;3.38;0.80;;;;;;;7.90;20.03;100068.06;5045609;28;20400;-76
2022/03/30 09:37:29;;;;;;;2.13;0.75;;;;;;;8.05;20.48;100076.63;5045485;28;20089;-76
2022/03/30 09:39:55;;;;;;;1.75;0.70;;;;;;;8.53;21.82;100072.97;5045365;28;20118;-75
2022/03/30 09:42:20;;;;;;;4.05;1.33;;;;;;;9.26;20.42;100067.34;5027512;28;20125;-75
2022/03/30 09:44:51;;;;;;;2.90;0.90;;;;;;;9.65;20.38;100072.16;5045286;28;20029;-75
2022/03/30 09:47:19;;;;;;;3.42;1.63;;;;;;;9.92;19.83;100070.13;5045592;28;20052;-75
2022/03/30 09:49:47;;;;;;;1.77;0.85;;;;;;;9.88;19.66;100062.41;5045379;28;20108;-75
2022/03/30 09:52:21;;;;;;;0.95;0.70;;;;;;;10.24;18.77;100075.81;5027579;28;20026;-77
2022/03/30 09:54:51;;;;;;;1.35;0.60;;;;;;;9.67;18.67;100079.91;5045581;28;20091;-75
2022/03/30 09:57:34;;;;;;;3.05;0.60;;;;;;;9.59;19.23;100079.97;5045495;28;20021;-76
2022/03/30 10:00:18;;;;;;;1.20;0.80;;;;;;;9.55;19.49;100070.53;5044495;28;20067;-75
2022/03/30 10:02:47;;;;;;;2.75;0.80;;;;;;;10.04;19.42;100078.66;5045016;28;20072;-75
2022/03/30 10:05:14;;;;;;;1.75;0.82;;;;;;;10.71;19.28;100076.97;5044930;28;20031;-72
2022/03/30 10:07:40;;;;;;;2.28;0.75;;;;;;;10.76;19.20;100057.88;5027298;28;20479;-74
2022/03/30 10:10:08;;;;;;;0.77;0.70;;;;;;;10.71;19.11;100071.78;5045179;28;20075;-75
2022/03/30 10:12:35;;;;;;;0.85;0.60;;;;;;;10.93;19.83;100066.28;5044974;28;20025;-75
2022/03/30 10:15:00;;;;;;;1.40;0.70;;;;;;;11.63;18.33;100068.56;5044662;28;20018;-75
2022/03/30 10:17:29;;;;;;;1.95;0.63;;;;;;;11.09;17.29;100074.66;5044844;28;20033;-76
2022/03/30 10:19:57;;;;;;;0.95;0.60;;;;;;;10.44;17.45;100074.72;5044753;28;20036;-76
2022/03/30 10:22:45;;;;;;;1.17;0.60;;;;;;;10.03;18.10;100051.03;5027081;28;20028;-77
2022/03/30 10:25:18;;;;;;;0.68;0.52;;;;;;;9.83;18.02;100062.47;5026708;28;20040;-76
2022/03/30 10:27:51;;;;;;;2.85;0.80;;;;;;;10.23;18.81;100061.13;5044903;28;20592;-76
2022/03/30 10:30:27;;;;;;;3.97;0.85;;;;;;;10.43;18.66;100059.16;5026816;28;20033;-75
2022/03/30 10:32:59;;;;;;;1.83;0.90;;;;;;;10.37;17.98;100067.88;5044802;28;20017;-75
2022/03/30 10:35:46;;;;;;;2.35;0.60;;;;;;;10.11;17.80;100059.53;5044754;28;20449;-75
2022/03/30 10:38:13;;;;;;;1.17;0.70;;;;;;;9.88;17.56;100057.22;5044539;28;20104;-74
2022/03/30 10:40:39;;;;;;;1.88;0.70;;;;;;;10.08;17.69;100053.56;5044715;28;20029;-76
2022/03/30 10:43:31;;;;;;;1.27;0.85;;;;;;;10.23;17.37;100047.31;5044439;28;20049;-75
2022/03/30 10:45:58;;;;;;;;;;;;;;;10.51;17.09;100063.38;5023351;28;20405;-74
2022/03/30 10:48:37;;;;;;;0.75;0.60;;;;;;;10.14;16.81;100056.91;5026803;28;19908;-76
2022/03/30 10:51:08;;;;;;;1.65;0.60;;;;;;;9.75;16.70;100049.59;5044877;28;20466;-76
2022/03/30 10:53:38;;;;;;;3.53;0.70;;;;;;;9.66;16.82;100058.31;5044520;28;20049;-75
2022/03/30 10:56:09;;;;;;;2.33;0.60;;;;;;;9.82;16.06;100047.78;5044339;28;20010;-76
2022/03/30 10:58:58;;;;;;;0.50;0.50;;;;;;;9.64;15.61;100039.34;5026014;28;20022;-76
2022/03/30 11:01:26;;;;;;;1.23;0.50;;;;;;;9.52;16.29;100042.91;5043923;28;20033;-75
2022/03/30 11:03:57;;;;;;;0.60;0.50;;;;;;;10.06;16.12;100047.50;5044017;28;20055;-76
2022/03/30 11:06:23;;;;;;;0.90;0.65;;;;;;;9.82;15.12;100037.44;5044110;28;20033;-75
2022/03/30 11:08:51;;;;;;;1.95;0.60;;;;;;;9.45;16.05;100032.59;5043990;28;20021;-75
2022/03/30 11:11:35;;;;;;;1.20;0.75;;;;;;;9.66;16.53;100034.97;5043508;28;20025;-75
2022/03/30 11:14:40;;;;;;;0.77;0.50;;;;;;;9.94;16.35;100045.91;5043889;28;20025;-75
2022/03/30 11:17:29;;;;;;;3.08;0.70;;;;;;;9.85;16.34;100034.78;5025711;28;20471;-75
2022/03/30 11:19:58;;;;;;;0.68;0.45;;;;;;;10.41;15.84;100041.03;5043552;28;20049;-75
2022/03/30 11:22:32;;;;;;;1.02;0.60;;;;;;;10.93;16.18;100020.38;5043747;28;20056;-76
2022/03/30 11:25:22;;;;;;;0.70;0.50;;;;;;;11.77;15.70;100023.25;5025961;28;20036;-76
2022/03/30 11:27:56;;;;;;;1.67;0.70;;;;;;;11.84;15.63;100027.44;5043750;28;20025;-75
2022/03/30 11:30:23;;;;;;;1.30;0.93;;;;;;;12.20;15.96;100020.69;5043584;28;20017;-75
2022/03/30 11:32:52;;;;;;;1.40;0.63;;;;;;;11.60;15.21;100021.81;5025456;28;20017;-76
2022/03/30 11:35:20;;;;;;;1.33;0.73;;;;;;;10.01;16.07;100026.81;5043173;28;20100;-75
2022/03/30 11:37:47;;;;;;;0.90;0.70;;;;;;;8.66;16.59;100032.38;5024704;28;20075;-74
2022/03/30 11:40:15;;;;;;;0.85;0.60;;;;;;;7.35;17.21;100028.53;5042726;28;20026;-75